createdAt,value
2023-04-16T00:00:42.792Z,29.30
2023-04-16T00:01:42.808Z,30.20
2023-04-16T00:02:42.864Z,29.60
2023-04-16T00:03:43.017Z,27.90
2023-04-16T00:04:42.845Z,30.90
2023-04-16T00:05:42.738Z,28.60
2023-04-16T00:06:43.737Z,29.00
2023-04-16T00:07:42.742Z,29.10
2023-04-16T00:08:42.724Z,30.10
2023-04-16T00:09:42.753Z,30.20
2023-04-16T00:10:42.706Z,30.30
2023-04-16T00:11:42.705Z,27.80
2023-04-16T00:12:42.693Z,30.00
2023-04-16T00:13:42.689Z,27.90
2023-04-16T00:14:42.715Z,26.90
2023-04-16T00:15:42.682Z,27.30
2023-04-16T00:16:42.700Z,27.00
2023-04-16T00:17:42.736Z,28.70
2023-04-16T00:18:42.649Z,26.50
2023-04-16T00:19:42.664Z,28.60
2023-04-16T00:20:42.646Z,29.00
2023-04-16T00:21:42.643Z,29.80
2023-04-16T00:22:42.640Z,28.40
2023-04-16T00:23:42.644Z,30.70
2023-04-16T00:24:42.699Z,27.00
2023-04-16T00:25:42.626Z,26.90
2023-04-16T00:26:42.612Z,29.20
2023-04-16T00:27:42.624Z,29.40
2023-04-16T00:28:42.590Z,29.80
2023-04-16T00:29:42.587Z,28.10
2023-04-16T00:30:42.648Z,28.80
2023-04-16T00:31:42.613Z,29.80
2023-04-16T00:32:42.612Z,30.00
2023-04-16T00:33:42.555Z,29.00
2023-04-16T00:34:42.546Z,28.90
2023-04-16T00:35:42.639Z,28.70
2023-04-16T00:36:42.527Z,29.70
2023-04-16T00:37:42.529Z,29.90
2023-04-16T00:38:42.528Z,30.00
2023-04-16T00:39:42.521Z,31.10
2023-04-16T00:40:42.521Z,31.30
2023-04-16T00:41:42.492Z,31.30
2023-04-16T00:42:42.498Z,31.70
2023-04-16T00:43:42.479Z,31.20
2023-04-16T00:44:42.490Z,31.60
2023-04-16T00:45:42.476Z,32.00
2023-04-16T00:46:42.507Z,30.90
2023-04-16T00:47:42.493Z,30.40
2023-04-16T00:48:42.445Z,31.10
2023-04-16T00:49:42.434Z,30.30
2023-04-16T00:50:42.500Z,29.60
2023-04-16T00:51:42.416Z,28.70
2023-04-16T00:52:42.418Z,26.80
2023-04-16T00:53:42.402Z,28.00
2023-04-16T00:54:42.399Z,26.50
2023-04-16T00:55:42.419Z,28.70
2023-04-16T00:56:42.378Z,27.90
2023-04-16T00:57:42.372Z,27.50
2023-04-16T00:58:42.367Z,28.40
2023-04-16T00:59:42.359Z,29.10
2023-04-16T01:00:42.375Z,27.60
2023-04-16T01:01:42.357Z,26.70
2023-04-16T01:02:42.521Z,27.20
2023-04-16T01:03:42.420Z,27.50
2023-04-16T01:04:42.350Z,25.20
2023-04-16T01:05:42.378Z,26.50
2023-04-16T01:06:42.340Z,27.10
2023-04-16T01:07:42.348Z,24.90
2023-04-16T01:08:42.296Z,25.20
2023-04-16T01:09:42.295Z,26.30
2023-04-16T01:10:42.307Z,25.30
2023-04-16T01:11:42.272Z,26.00
2023-04-16T01:12:42.267Z,26.30
2023-04-16T01:13:42.273Z,25.70
2023-04-16T01:14:42.258Z,25.00
2023-04-16T01:15:42.341Z,24.60
2023-04-16T01:16:42.246Z,24.80
2023-04-16T01:17:42.268Z,26.00
2023-04-16T01:18:42.226Z,26.10
2023-04-16T01:19:42.229Z,27.00
2023-04-16T01:20:42.255Z,27.10
2023-04-16T01:21:42.214Z,25.90
2023-04-16T01:22:42.213Z,25.40
2023-04-16T01:23:42.195Z,27.10
2023-04-16T01:24:42.197Z,27.90
2023-04-16T01:25:42.194Z,26.30
2023-04-16T01:26:42.175Z,29.20
2023-04-16T01:27:42.173Z,28.50
2023-04-16T01:28:42.163Z,26.80
2023-04-16T01:29:42.160Z,28.80
2023-04-16T01:30:42.184Z,27.70
2023-04-16T01:31:42.189Z,29.40
2023-04-16T01:32:42.164Z,30.20
2023-04-16T01:33:42.131Z,28.30
2023-04-16T01:34:42.144Z,28.10
2023-04-16T01:35:42.147Z,27.90
2023-04-16T01:36:42.474Z,29.30
2023-04-16T01:37:42.102Z,28.50
2023-04-16T01:38:42.146Z,29.40
2023-04-16T01:39:42.084Z,28.10
2023-04-16T01:40:42.224Z,27.80
2023-04-16T01:41:42.073Z,28.20
2023-04-16T01:42:42.082Z,27.60
2023-04-16T01:43:42.054Z,28.30
2023-04-16T01:44:42.052Z,29.60
2023-04-16T01:45:42.064Z,29.10
2023-04-16T01:46:42.075Z,30.70
2023-04-16T01:47:42.064Z,30.60
2023-04-16T01:48:42.039Z,32.10
2023-04-16T01:49:42.020Z,31.30
2023-04-16T01:50:42.017Z,29.70
2023-04-16T01:51:42.005Z,31.40
2023-04-16T01:52:41.999Z,31.20
2023-04-16T01:53:41.974Z,31.40
2023-04-16T01:54:41.975Z,32.60
2023-04-16T01:55:42.004Z,29.30
2023-04-16T01:56:41.964Z,30.80
2023-04-16T01:57:41.972Z,30.50
2023-04-16T01:58:41.956Z,31.90
2023-04-16T01:59:41.934Z,30.90
2023-04-16T02:00:41.990Z,31.10
2023-04-16T02:01:41.923Z,31.70
2023-04-16T02:02:42.002Z,30.20
2023-04-16T02:03:42.071Z,31.50
2023-04-16T02:04:41.906Z,31.50
2023-04-16T02:05:41.945Z,31.00
2023-04-16T02:06:41.887Z,31.10
2023-04-16T02:07:41.882Z,31.20
2023-04-16T02:08:41.862Z,31.70
2023-04-16T02:09:41.941Z,31.10
2023-04-16T02:10:41.875Z,30.40
2023-04-16T02:11:41.857Z,32.60
2023-04-16T02:12:41.857Z,30.90
2023-04-16T02:13:41.830Z,29.80
2023-04-16T02:14:41.834Z,32.00
2023-04-16T02:15:41.862Z,32.60
2023-04-16T02:16:41.840Z,33.50
2023-04-16T02:17:41.834Z,31.60
2023-04-16T02:18:41.810Z,30.80
2023-04-16T02:19:41.789Z,33.80
2023-04-16T02:20:41.794Z,33.90
2023-04-16T02:21:41.779Z,32.90
2023-04-16T02:22:41.776Z,33.40
2023-04-16T02:23:41.759Z,32.60
2023-04-16T02:24:41.746Z,32.00
2023-04-16T02:25:41.765Z,32.50
2023-04-16T02:26:41.737Z,30.00
2023-04-16T02:27:41.740Z,30.60
2023-04-16T02:28:41.741Z,30.20
2023-04-16T02:29:41.715Z,29.40
2023-04-16T02:30:41.734Z,29.70
2023-04-16T02:31:41.754Z,31.60
2023-04-16T02:32:41.739Z,30.60
2023-04-16T02:33:41.693Z,30.30
2023-04-16T02:34:41.683Z,32.20
2023-04-16T02:35:41.751Z,31.40
2023-04-16T02:36:41.668Z,32.50
2023-04-16T02:37:41.663Z,31.30
2023-04-16T02:38:41.693Z,31.50
2023-04-16T02:39:41.648Z,32.90
2023-04-16T02:40:41.656Z,29.60
2023-04-16T02:41:41.622Z,31.20
2023-04-16T02:42:41.631Z,29.50
2023-04-16T02:43:41.618Z,29.80
2023-04-16T02:44:41.695Z,31.60
2023-04-16T02:45:41.649Z,31.90
2023-04-16T02:46:41.607Z,31.30
2023-04-16T02:47:41.626Z,30.10
2023-04-16T02:48:41.584Z,32.10
2023-04-16T02:49:41.579Z,30.20
2023-04-16T02:50:41.620Z,31.90
2023-04-16T02:51:41.572Z,28.50
2023-04-16T02:52:41.546Z,30.10
2023-04-16T02:53:42.551Z,30.60
2023-04-16T02:54:41.566Z,30.30
2023-04-16T02:55:41.555Z,29.00
2023-04-16T02:56:41.530Z,31.00
2023-04-16T02:57:41.532Z,30.90
2023-04-16T02:58:41.601Z,30.50
2023-04-16T02:59:41.522Z,31.40
2023-04-16T03:00:41.541Z,33.00
2023-04-16T03:01:41.551Z,33.00
2023-04-16T03:02:41.535Z,31.40
2023-04-16T03:03:41.487Z,33.20
2023-04-16T03:04:41.596Z,33.20
2023-04-16T03:05:41.480Z,32.60
2023-04-16T03:06:41.460Z,32.10
2023-04-16T03:07:41.468Z,31.00
2023-04-16T03:08:41.442Z,32.90
2023-04-16T03:09:42.081Z,33.00
2023-04-16T03:10:41.441Z,33.00
2023-04-16T03:11:41.419Z,33.50
2023-04-16T03:12:41.418Z,34.50
2023-04-16T03:13:41.414Z,35.00
2023-04-16T03:14:41.421Z,33.80
2023-04-16T03:15:41.424Z,34.20
2023-04-16T03:16:41.398Z,35.60
2023-04-16T03:17:41.398Z,36.30
2023-04-16T03:18:41.368Z,39.40
2023-04-16T03:19:41.366Z,39.60
2023-04-16T03:20:41.384Z,39.90
2023-04-16T03:21:41.356Z,40.10
2023-04-16T03:22:41.349Z,37.60
2023-04-16T03:23:41.340Z,40.90
2023-04-16T03:24:41.358Z,41.20
2023-04-16T03:25:41.320Z,44.10
2023-04-16T03:26:41.317Z,42.90
2023-04-16T03:27:41.303Z,39.20
2023-04-16T03:28:41.293Z,42.70
2023-04-16T03:29:41.301Z,42.50
2023-04-16T03:30:41.326Z,41.20
2023-04-16T03:31:41.312Z,39.80
2023-04-16T03:32:41.338Z,41.60
2023-04-16T03:33:41.264Z,42.90
2023-04-16T03:34:41.284Z,37.40
2023-04-16T03:35:41.266Z,36.70
2023-04-16T03:36:41.234Z,38.30
2023-04-16T03:37:41.250Z,40.60
2023-04-16T03:38:41.219Z,38.40
2023-04-16T03:39:41.220Z,39.40
2023-04-16T03:40:41.244Z,42.30
2023-04-16T03:41:41.210Z,36.00
2023-04-16T03:42:41.198Z,36.10
2023-04-16T03:43:41.186Z,38.90
2023-04-16T03:44:41.204Z,34.50
2023-04-16T03:45:41.179Z,35.70
2023-04-16T03:46:41.203Z,36.80
2023-04-16T03:47:41.219Z,37.70
2023-04-16T03:48:41.178Z,38.90
2023-04-16T03:49:41.166Z,36.80
2023-04-16T03:50:41.165Z,37.00
2023-04-16T03:51:41.139Z,36.80
2023-04-16T03:52:41.131Z,33.00
2023-04-16T03:53:41.129Z,30.00
2023-04-16T03:54:41.126Z,37.40
2023-04-16T03:55:41.125Z,37.00
2023-04-16T03:56:41.108Z,36.90
2023-04-16T03:57:41.085Z,35.10
2023-04-16T03:58:42.099Z,32.60
2023-04-16T03:59:41.079Z,30.90
2023-04-16T04:00:41.091Z,28.90
2023-04-16T04:01:41.207Z,31.30
2023-04-16T04:02:41.205Z,32.70
2023-04-16T04:03:41.308Z,30.90
2023-04-16T04:04:41.253Z,30.00
2023-04-16T04:05:41.072Z,29.90
2023-04-16T04:06:41.031Z,29.90
2023-04-16T04:07:41.068Z,32.40
2023-04-16T04:08:41.017Z,29.70
2023-04-16T04:09:41.001Z,29.60
2023-04-16T04:10:41.026Z,28.40
2023-04-16T04:11:40.999Z,29.80
2023-04-16T04:12:40.988Z,30.90
2023-04-16T04:13:40.995Z,27.10
2023-04-16T04:14:40.969Z,29.00
2023-04-16T04:15:41.012Z,29.40
2023-04-16T04:16:41.095Z,29.50
2023-04-16T04:17:41.018Z,29.00
2023-04-16T04:18:41.715Z,27.00
2023-04-16T04:19:47.038Z,27.20
2023-04-16T04:20:42.977Z,26.40
2023-04-16T04:21:41.921Z,25.80
2023-04-16T04:22:40.937Z,27.20
2023-04-16T04:23:40.913Z,27.80
2023-04-16T04:24:40.922Z,26.20
2023-04-16T04:25:40.927Z,26.60
2023-04-16T04:26:40.897Z,28.20
2023-04-16T04:27:40.873Z,26.20
2023-04-16T04:28:40.893Z,27.30
2023-04-16T04:29:40.887Z,27.30
2023-04-16T04:30:40.897Z,26.80
2023-04-16T04:31:40.917Z,26.50
2023-04-16T04:32:40.926Z,26.50
2023-04-16T04:33:40.858Z,26.90
2023-04-16T04:34:40.844Z,28.30
2023-04-16T04:35:40.842Z,25.60
2023-04-16T04:36:40.820Z,27.80
2023-04-16T04:37:40.808Z,28.10
2023-04-16T04:38:40.800Z,26.40
2023-04-16T04:39:40.789Z,27.00
2023-04-16T04:40:40.806Z,26.70
2023-04-16T04:41:40.786Z,29.30
2023-04-16T04:42:40.771Z,30.30
2023-04-16T04:43:40.769Z,29.70
2023-04-16T04:44:40.761Z,28.20
2023-04-16T04:45:40.769Z,34.30
2023-04-16T04:46:40.739Z,39.30
2023-04-16T04:47:40.750Z,32.20
2023-04-16T04:48:40.782Z,32.50
2023-04-16T04:49:40.721Z,61.20
2023-04-16T04:50:41.627Z,35.20
2023-04-16T04:51:40.718Z,35.90
2023-04-16T04:52:41.140Z,55.40
2023-04-16T04:53:41.819Z,39.70
2023-04-16T04:54:40.683Z,48.60
2023-04-16T04:55:40.696Z,35.30
2023-04-16T04:56:40.668Z,38.40
2023-04-16T04:57:40.670Z,37.90
2023-04-16T04:58:40.651Z,43.30
2023-04-16T04:59:40.650Z,40.30
2023-04-16T05:00:40.660Z,39.80
2023-04-16T05:01:40.684Z,39.10
2023-04-16T05:02:40.807Z,41.60
2023-04-16T05:03:40.691Z,37.60
2023-04-16T05:04:40.658Z,41.40
2023-04-16T05:05:40.643Z,41.90
2023-04-16T05:06:40.589Z,43.40
2023-04-16T05:07:40.588Z,42.50
2023-04-16T05:08:40.583Z,41.00
2023-04-16T05:09:40.572Z,44.90
2023-04-16T05:10:40.607Z,44.90
2023-04-16T05:11:40.572Z,44.60
2023-04-16T05:12:40.560Z,44.40
2023-04-16T05:13:41.569Z,45.90
2023-04-16T05:14:40.537Z,43.80
2023-04-16T05:15:40.564Z,45.10
2023-04-16T05:16:40.594Z,49.70
2023-04-16T05:17:40.530Z,49.00
2023-04-16T05:18:40.526Z,48.20
2023-04-16T05:19:40.515Z,48.00
2023-04-16T05:20:40.570Z,46.60
2023-04-16T05:21:40.493Z,46.70
2023-04-16T05:22:40.496Z,48.70
2023-04-16T05:23:40.479Z,47.90
2023-04-16T05:24:40.484Z,46.50
2023-04-16T05:25:40.494Z,47.80
2023-04-16T05:26:40.457Z,47.60
2023-04-16T05:27:40.452Z,48.90
2023-04-16T05:28:40.461Z,49.00
2023-04-16T05:29:40.440Z,50.40
2023-04-16T05:30:40.470Z,52.70
2023-04-16T05:31:40.420Z,51.60
2023-04-16T05:32:40.480Z,47.90
2023-04-16T05:33:40.421Z,48.90
2023-04-16T05:34:40.398Z,50.70
2023-04-16T05:35:40.443Z,48.70
2023-04-16T05:36:40.389Z,50.20
2023-04-16T05:37:40.394Z,52.60
2023-04-16T05:38:40.380Z,45.30
2023-04-16T05:39:40.376Z,47.20
2023-04-16T05:40:40.377Z,47.20
2023-04-16T05:41:40.353Z,46.60
2023-04-16T05:42:40.345Z,44.80
2023-04-16T05:43:41.333Z,42.20
2023-04-16T05:44:40.325Z,43.50
2023-04-16T05:45:40.342Z,47.90
2023-04-16T05:46:40.333Z,46.40
2023-04-16T05:47:40.332Z,45.80
2023-04-16T05:48:40.316Z,40.50
2023-04-16T05:49:40.292Z,42.80
2023-04-16T05:50:40.329Z,52.80
2023-04-16T05:51:40.284Z,52.20
2023-04-16T05:52:40.277Z,43.70
2023-04-16T05:53:40.262Z,42.90
2023-04-16T05:54:40.250Z,41.70
2023-04-16T05:55:40.280Z,42.30
2023-04-16T05:56:40.266Z,40.40
2023-04-16T05:57:40.242Z,42.00
2023-04-16T05:58:40.225Z,40.10
2023-04-16T05:59:40.213Z,39.80
2023-04-16T06:00:40.230Z,41.50
2023-04-16T06:01:40.204Z,36.70
2023-04-16T06:02:40.382Z,40.70
2023-04-16T06:03:41.632Z,40.80
2023-04-16T06:04:41.408Z,38.40
2023-04-16T06:05:40.475Z,41.60
2023-04-16T06:06:41.426Z,41.50
2023-04-16T06:07:40.160Z,41.70
2023-04-16T06:08:40.165Z,39.80
2023-04-16T06:09:40.134Z,40.40
2023-04-16T06:10:40.163Z,43.10
2023-04-16T06:11:40.144Z,42.00
2023-04-16T06:12:40.125Z,38.60
2023-04-16T06:13:40.116Z,45.00
2023-04-16T06:14:40.111Z,44.00
2023-04-16T06:15:40.133Z,45.50
2023-04-16T06:16:40.096Z,41.40
2023-04-16T06:17:40.212Z,43.90
2023-04-16T06:18:40.090Z,45.10
2023-04-16T06:19:40.135Z,43.60
2023-04-16T06:20:40.101Z,42.70
2023-04-16T06:21:40.061Z,42.30
2023-04-16T06:22:40.056Z,43.90
2023-04-16T06:23:40.045Z,44.70
2023-04-16T06:24:40.037Z,45.90
2023-04-16T06:25:40.038Z,42.30
2023-04-16T06:26:40.049Z,38.40
2023-04-16T06:27:40.020Z,38.70
2023-04-16T06:28:40.005Z,39.60
2023-04-16T06:29:41.531Z,39.50
2023-04-16T06:30:42.750Z,40.80
2023-04-16T06:31:40.004Z,40.70
2023-04-16T06:32:40.033Z,38.00
2023-04-16T06:33:39.979Z,40.00
2023-04-16T06:34:39.974Z,36.30
2023-04-16T06:35:39.966Z,35.30
2023-04-16T06:36:39.972Z,38.00
2023-04-16T06:37:39.949Z,35.40
2023-04-16T06:38:39.939Z,38.00
2023-04-16T06:39:39.930Z,39.50
2023-04-16T06:40:39.939Z,41.50
2023-04-16T06:41:39.934Z,41.70
2023-04-16T06:42:39.910Z,37.80
2023-04-16T06:43:39.900Z,41.10
2023-04-16T06:44:39.905Z,38.80
2023-04-16T06:45:39.909Z,38.90
2023-04-16T06:46:39.940Z,37.50
2023-04-16T06:47:39.892Z,38.40
2023-04-16T06:48:39.891Z,34.40
2023-04-16T06:49:39.862Z,35.80
2023-04-16T06:50:39.865Z,39.80
2023-04-16T06:51:39.871Z,37.10
2023-04-16T06:52:39.832Z,35.20
2023-04-16T06:53:39.837Z,35.80
2023-04-16T06:54:39.829Z,36.20
2023-04-16T06:55:39.862Z,33.90
2023-04-16T06:56:39.826Z,35.50
2023-04-16T06:57:39.833Z,32.90
2023-04-16T06:58:39.818Z,34.00
2023-04-16T06:59:39.802Z,31.00
2023-04-16T07:00:39.814Z,36.30
2023-04-16T07:01:39.817Z,37.60
2023-04-16T07:02:39.845Z,39.60
2023-04-16T07:03:39.920Z,37.40
2023-04-16T07:04:39.775Z,38.90
2023-04-16T07:05:39.778Z,36.10
2023-04-16T07:06:39.748Z,37.10
2023-04-16T07:07:39.735Z,47.90
2023-04-16T07:08:39.735Z,38.90
2023-04-16T07:09:39.725Z,32.10
2023-04-16T07:10:39.722Z,34.80
2023-04-16T07:11:39.730Z,35.10
2023-04-16T07:12:39.866Z,34.90
2023-04-16T07:13:39.737Z,33.40
2023-04-16T07:14:39.687Z,33.80
2023-04-16T07:15:39.670Z,35.90
2023-04-16T07:16:39.734Z,32.60
2023-04-16T07:17:39.825Z,36.00
2023-04-16T07:18:39.658Z,34.10
2023-04-16T07:19:39.660Z,40.70
2023-04-16T07:20:39.635Z,33.60
2023-04-16T07:21:39.665Z,32.70
2023-04-16T07:22:39.626Z,39.00
2023-04-16T07:23:39.632Z,35.30
2023-04-16T07:24:40.450Z,33.10
2023-04-16T07:25:42.438Z,34.40
2023-04-16T07:26:40.877Z,36.00
2023-04-16T07:27:39.595Z,41.10
2023-04-16T07:28:39.588Z,40.50
2023-04-16T07:29:39.596Z,41.10
2023-04-16T07:30:39.567Z,43.80
2023-04-16T07:31:39.739Z,44.50
2023-04-16T07:32:39.965Z,37.70
2023-04-16T07:33:39.800Z,35.70
2023-04-16T07:34:39.788Z,37.80
2023-04-16T07:35:39.559Z,34.30
2023-04-16T07:36:39.520Z,34.90
2023-04-16T07:37:39.528Z,33.20
2023-04-16T07:38:39.513Z,33.80
2023-04-16T07:39:39.511Z,35.40
2023-04-16T07:40:39.508Z,35.60
2023-04-16T07:41:39.510Z,38.20
2023-04-16T07:42:39.488Z,35.90
2023-04-16T07:43:39.483Z,36.40
2023-04-16T07:44:39.475Z,38.60
2023-04-16T07:45:40.497Z,37.30
2023-04-16T07:46:46.886Z,38.80
2023-04-16T07:47:41.500Z,39.00
2023-04-16T07:48:39.450Z,39.80
2023-04-16T07:49:39.528Z,40.00
2023-04-16T07:50:39.443Z,36.70
2023-04-16T07:51:39.465Z,38.20
2023-04-16T07:52:39.416Z,41.40
2023-04-16T07:53:39.417Z,38.30
2023-04-16T07:54:39.415Z,35.40
2023-04-16T07:55:39.394Z,38.40
2023-04-16T07:56:39.405Z,39.70
2023-04-16T07:57:39.381Z,41.30
2023-04-16T07:58:39.385Z,36.90
2023-04-16T07:59:39.379Z,44.00
2023-04-16T08:00:39.425Z,40.70
2023-04-16T08:01:39.366Z,45.70
2023-04-16T08:02:39.487Z,36.60
2023-04-16T08:03:39.455Z,40.50
2023-04-16T08:04:39.417Z,36.90
2023-04-16T08:05:40.328Z,35.80
2023-04-16T08:06:39.353Z,35.70
2023-04-16T08:07:39.316Z,35.10
2023-04-16T08:08:39.325Z,39.70
2023-04-16T08:09:39.324Z,38.30
2023-04-16T08:10:39.420Z,35.60
2023-04-16T08:11:39.314Z,33.20
2023-04-16T08:12:39.299Z,34.00
2023-04-16T08:13:39.311Z,34.40
2023-04-16T08:14:39.269Z,36.00
2023-04-16T08:15:39.286Z,37.40
2023-04-16T08:16:39.264Z,37.00
2023-04-16T08:17:39.290Z,37.90
2023-04-16T08:18:39.228Z,37.70
2023-04-16T08:19:39.249Z,34.20
2023-04-16T08:20:39.213Z,33.60
2023-04-16T08:21:39.231Z,38.40
2023-04-16T08:22:39.205Z,32.20
2023-04-16T08:23:39.184Z,37.10
2023-04-16T08:24:39.204Z,38.10
2023-04-16T08:25:39.183Z,35.70
2023-04-16T08:26:39.198Z,34.50
2023-04-16T08:27:39.162Z,38.30
2023-04-16T08:28:39.345Z,36.50
2023-04-16T08:29:40.458Z,35.30
2023-04-16T08:30:39.247Z,37.70
2023-04-16T08:31:39.204Z,35.00
2023-04-16T08:32:40.236Z,35.00
2023-04-16T08:33:39.146Z,39.50
2023-04-16T08:34:39.126Z,37.30
2023-04-16T08:35:39.104Z,38.00
2023-04-16T08:36:39.372Z,35.90
2023-04-16T08:37:39.113Z,37.80
2023-04-16T08:38:39.101Z,36.90
2023-04-16T08:39:39.090Z,39.90
2023-04-16T08:40:39.078Z,36.50
2023-04-16T08:41:39.113Z,40.70
2023-04-16T08:42:39.058Z,40.20
2023-04-16T08:43:39.079Z,39.60
2023-04-16T08:44:39.041Z,42.00
2023-04-16T08:45:39.038Z,42.50
2023-04-16T08:46:39.148Z,45.40
2023-04-16T08:47:39.089Z,40.90
2023-04-16T08:48:39.025Z,45.40
2023-04-16T08:49:39.022Z,44.20
2023-04-16T08:50:39.059Z,45.20
2023-04-16T08:51:38.991Z,46.00
2023-04-16T08:52:39.145Z,47.40
2023-04-16T08:53:38.988Z,46.40
2023-04-16T08:54:39.011Z,49.40
2023-04-16T08:55:39.007Z,49.40
2023-04-16T08:56:40.299Z,53.30
2023-04-16T08:57:38.957Z,54.30
2023-04-16T08:58:38.957Z,53.50
2023-04-16T08:59:38.949Z,53.20
2023-04-16T09:00:38.957Z,57.30
2023-04-16T09:01:38.985Z,52.20
2023-04-16T09:02:39.177Z,54.70
2023-04-16T09:03:39.049Z,50.90
2023-04-16T09:04:39.020Z,54.20
2023-04-16T09:05:38.959Z,56.00
2023-04-16T09:06:38.901Z,56.00
2023-04-16T09:07:38.895Z,59.10
2023-04-16T09:08:38.961Z,50.30
2023-04-16T09:09:39.236Z,52.00
2023-04-16T09:10:39.023Z,53.50
2023-04-16T09:11:40.104Z,56.40
2023-04-16T09:12:38.877Z,53.40
2023-04-16T09:13:39.756Z,58.00
2023-04-16T09:14:39.834Z,57.50
2023-04-16T09:15:38.828Z,54.70
2023-04-16T09:16:39.144Z,55.80
2023-04-16T09:17:38.831Z,59.50
2023-04-16T09:18:38.852Z,62.90
2023-04-16T09:19:38.814Z,63.90
2023-04-16T09:20:38.796Z,62.90
2023-04-16T09:21:38.806Z,58.10
2023-04-16T09:22:38.773Z,67.60
2023-04-16T09:23:38.839Z,80.20
2023-04-16T09:24:38.809Z,70.40
2023-04-16T09:25:38.783Z,71.60
2023-04-16T09:26:38.765Z,85.00
2023-04-16T09:27:38.739Z,77.60
2023-04-16T09:28:38.730Z,61.30
2023-04-16T09:29:38.722Z,78.00
2023-04-16T09:30:38.713Z,81.50
2023-04-16T09:31:38.778Z,88.60
2023-04-16T09:32:38.785Z,56.50
2023-04-16T09:33:38.690Z,62.60
2023-04-16T09:34:38.679Z,64.70
2023-04-16T09:35:38.676Z,59.40
2023-04-16T09:36:38.689Z,47.00
2023-04-16T09:37:38.694Z,48.60
2023-04-16T09:38:38.656Z,48.30
2023-04-16T09:39:38.638Z,64.20
2023-04-16T09:40:39.189Z,58.20
2023-04-16T09:41:38.966Z,53.70
2023-04-16T09:42:38.630Z,52.70
2023-04-16T09:43:38.622Z,72.20
2023-04-16T09:44:38.618Z,57.00
2023-04-16T09:45:39.602Z,56.50
2023-04-16T09:46:38.621Z,58.10
2023-04-16T09:47:38.660Z,64.10
2023-04-16T09:48:38.585Z,71.70
2023-04-16T09:50:38.569Z,61.30
2023-04-16T09:51:38.581Z,76.40
2023-04-16T09:52:38.586Z,69.60
2023-04-16T09:53:38.556Z,64.30
2023-04-16T09:54:38.542Z,74.00
2023-04-16T09:55:38.542Z,64.30
2023-04-16T09:56:38.544Z,68.50
2023-04-16T09:57:38.554Z,63.10
2023-04-16T09:58:38.537Z,56.00
2023-04-16T09:59:38.550Z,58.20
2023-04-16T10:00:42.203Z,56.00
2023-04-16T10:01:39.547Z,55.10
2023-04-16T10:02:38.635Z,57.90
2023-04-16T10:03:38.640Z,54.40
2023-04-16T10:04:38.563Z,65.70
2023-04-16T10:05:38.477Z,59.30
2023-04-16T10:06:38.504Z,56.80
2023-04-16T10:07:38.460Z,56.60
2023-04-16T10:08:38.457Z,56.90
2023-04-16T10:09:38.456Z,53.00
2023-04-16T10:10:38.482Z,52.00
2023-04-16T10:11:38.470Z,47.80
2023-04-16T10:12:38.427Z,54.70
2023-04-16T10:13:38.432Z,52.40
2023-04-16T10:14:38.404Z,57.70
2023-04-16T10:15:38.403Z,55.30
2023-04-16T10:16:38.461Z,53.40
2023-04-16T10:17:38.502Z,49.50
2023-04-16T10:18:38.430Z,47.30
2023-04-16T10:19:38.381Z,44.80
2023-04-16T10:20:38.371Z,42.90
2023-04-16T10:21:38.375Z,41.50
2023-04-16T10:22:38.359Z,47.20
2023-04-16T10:23:38.339Z,39.60
2023-04-16T10:24:38.350Z,35.20
2023-04-16T10:25:38.331Z,40.00
2023-04-16T10:26:38.374Z,39.30
2023-04-16T10:27:38.333Z,36.00
2023-04-16T10:28:38.440Z,36.60
2023-04-16T10:29:38.308Z,32.30
2023-04-16T10:30:38.345Z,33.20
2023-04-16T10:31:38.310Z,33.40
2023-04-16T10:32:38.331Z,34.20
2023-04-16T10:33:38.263Z,34.20
2023-04-16T10:34:38.265Z,34.70
2023-04-16T10:35:38.258Z,33.00
2023-04-16T10:36:38.415Z,33.40
2023-04-16T10:37:38.271Z,31.20
2023-04-16T10:38:38.239Z,32.20
2023-04-16T10:39:38.220Z,36.90
2023-04-16T10:40:38.220Z,28.50
2023-04-16T10:41:38.237Z,27.50
2023-04-16T10:42:38.228Z,25.80
2023-04-16T10:43:38.199Z,28.40
2023-04-16T10:44:38.239Z,27.50
2023-04-16T10:45:38.172Z,25.30
2023-04-16T10:46:38.214Z,27.30
2023-04-16T10:47:38.191Z,27.80
2023-04-16T10:48:46.780Z,27.10
2023-04-16T10:49:40.163Z,26.10
2023-04-16T10:50:38.157Z,24.90
2023-04-16T10:51:38.154Z,24.80
2023-04-16T10:52:38.140Z,26.30
2023-04-16T10:53:38.133Z,26.10
2023-04-16T10:54:38.112Z,24.10
2023-04-16T10:55:39.056Z,24.10
2023-04-16T10:56:38.127Z,23.90
2023-04-16T10:57:38.096Z,23.90
2023-04-16T10:58:38.093Z,26.20
2023-04-16T10:59:38.084Z,25.50
2023-04-16T11:00:38.078Z,26.00
2023-04-16T11:01:38.137Z,22.80
2023-04-16T11:02:38.380Z,25.60
2023-04-16T11:03:38.191Z,26.20
2023-04-16T11:04:38.204Z,26.00
2023-04-16T11:05:38.035Z,23.80
2023-04-16T11:06:38.060Z,26.30
2023-04-16T11:07:38.018Z,34.00
2023-04-16T11:08:51.166Z,25.60
2023-04-16T11:09:40.010Z,25.00
2023-04-16T11:10:38.000Z,23.60
2023-04-16T11:11:38.082Z,26.10
2023-04-16T11:12:39.568Z,24.20
2023-04-16T11:13:38.857Z,23.70
2023-04-16T11:14:37.971Z,22.50
2023-04-16T11:15:37.958Z,25.40
2023-04-16T11:16:37.991Z,25.20
2023-04-16T11:17:38.015Z,22.50
2023-04-16T11:18:37.939Z,23.20
2023-04-16T11:19:38.953Z,23.30
2023-04-16T11:20:37.929Z,24.60
2023-04-16T11:21:37.938Z,24.00
2023-04-16T11:22:37.956Z,27.50
2023-04-16T11:23:39.005Z,22.60
2023-04-16T11:24:38.030Z,22.30
2023-04-16T11:25:37.912Z,17.30
2023-04-16T11:26:37.901Z,18.00
2023-04-16T11:27:37.881Z,21.10
2023-04-16T11:28:37.910Z,21.40
2023-04-16T11:29:40.027Z,21.20
2023-04-16T11:30:38.349Z,20.30
2023-04-16T11:31:39.074Z,20.00
2023-04-16T11:32:38.351Z,20.10
2023-04-16T11:33:38.152Z,19.60
2023-04-16T11:34:38.013Z,20.40
2023-04-16T11:35:40.050Z,17.50
2023-04-16T11:36:37.819Z,20.10
2023-04-16T11:37:38.194Z,19.60
2023-04-16T11:38:37.792Z,18.70
2023-04-16T11:43:01.822Z,17.70
2023-04-16T11:44:01.811Z,18.50
2023-04-16T11:45:01.767Z,17.50
2023-04-16T11:46:05.481Z,15.90
2023-04-16T11:47:02.793Z,17.10
2023-04-16T11:48:01.767Z,15.60
2023-04-16T11:49:01.735Z,16.60
2023-04-16T11:50:01.767Z,15.10
2023-04-16T11:51:01.770Z,16.50
2023-04-16T11:52:02.909Z,14.90
2023-04-16T11:53:02.834Z,14.40
2023-04-16T11:54:02.847Z,14.70
2023-04-16T11:55:02.866Z,15.40
2023-04-16T11:56:02.811Z,17.40
2023-04-16T11:57:02.854Z,14.50
2023-04-16T11:58:02.807Z,14.50
2023-04-16T11:59:02.796Z,14.00
2023-04-16T12:00:04.493Z,13.40
2023-04-16T12:01:03.779Z,14.00
2023-04-16T12:02:02.871Z,14.10
2023-04-16T12:03:02.981Z,13.70
2023-04-16T12:04:03.260Z,12.10
2023-04-16T12:05:03.871Z,13.60
2023-04-16T12:06:02.770Z,13.20
2023-04-16T12:07:02.830Z,15.00
2023-04-16T12:08:03.775Z,14.50
2023-04-16T12:09:02.755Z,14.50
2023-04-16T12:10:02.719Z,13.70
2023-04-16T12:11:02.785Z,13.80
2023-04-16T12:12:02.719Z,13.60
2023-04-16T12:13:02.691Z,13.90
2023-04-16T12:14:02.692Z,14.50
2023-04-16T12:15:02.712Z,13.30
2023-04-16T12:16:02.729Z,14.20
2023-04-16T12:17:02.741Z,13.70
2023-04-16T12:18:02.711Z,14.50
2023-04-16T12:19:02.673Z,14.20
2023-04-16T12:20:02.657Z,13.50
2023-04-16T12:21:02.643Z,13.60
2023-04-16T12:22:02.653Z,14.80
2023-04-16T12:23:02.633Z,14.10
2023-04-16T12:24:02.619Z,13.40
2023-04-16T12:25:02.620Z,14.50
2023-04-16T12:26:03.082Z,14.30
2023-04-16T12:27:02.610Z,13.10
2023-04-16T12:28:02.585Z,14.40
2023-04-16T12:29:02.590Z,15.00
2023-04-16T12:30:02.579Z,13.40
2023-04-16T12:31:02.623Z,12.10
2023-04-16T12:32:02.595Z,15.90
2023-04-16T12:33:02.566Z,13.70
2023-04-16T12:34:02.559Z,11.20
2023-04-16T12:35:02.544Z,13.50
2023-04-16T12:36:02.535Z,12.30
2023-04-16T12:37:02.570Z,14.30
2023-04-16T12:38:02.518Z,17.10
2023-04-16T12:39:02.526Z,20.60
2023-04-16T12:40:02.493Z,16.10
2023-04-16T12:41:02.605Z,13.60
2023-04-16T12:42:02.512Z,13.60
2023-04-16T12:43:02.488Z,14.10
2023-04-16T12:44:02.472Z,13.40
2023-04-16T12:45:02.494Z,12.10
2023-04-16T12:46:04.132Z,14.00
2023-04-16T12:47:02.472Z,16.20
2023-04-16T12:48:02.486Z,16.70
2023-04-16T12:49:02.449Z,15.50
2023-04-16T12:50:02.456Z,14.20
2023-04-16T12:51:02.428Z,15.60
2023-04-16T12:52:02.440Z,14.20
2023-04-16T12:53:02.418Z,14.00
2023-04-16T12:54:02.411Z,16.00
2023-04-16T12:55:02.404Z,18.30
2023-04-16T12:56:02.396Z,14.60
2023-04-16T12:57:02.412Z,14.50